sensor_id;sensor_type;location;lat;lon;timestamp;P1;durP1;ratioP1;P2;durP2;ratioP2
30378;SDS011;17168;49.164;9.060;2023-04-24T00:00:54;1.15;;;0.32;;
30378;SDS011;17168;49.164;9.060;2023-04-24T00:03:32;2.50;;;0.28;;
30378;SDS011;17168;49.164;9.060;2023-04-24T00:06:05;0.70;;;0.28;;
30378;SDS011;17168;49.164;9.060;2023-04-24T00:08:39;0.63;;;0.28;;
30378;SDS011;17168;49.164;9.060;2023-04-24T00:11:11;1.05;;;0.30;;
30378;SDS011;17168;49.164;9.060;2023-04-24T00:13:43;3.38;;;0.43;;
30378;SDS011;17168;49.164;9.060;2023-04-24T00:16:18;1.38;;;0.35;;
30378;SDS011;17168;49.164;9.060;2023-04-24T00:18:50;0.55;;;0.10;;
30378;SDS011;17168;49.164;9.060;2023-04-24T00:21:24;1.05;;;0.05;;
30378;SDS011;17168;49.164;9.060;2023-04-24T00:23:57;2.15;;;0.47;;
30378;SDS011;17168;49.164;9.060;2023-04-24T00:26:29;1.00;;;0.25;;
30378;SDS011;17168;49.164;9.060;2023-04-24T00:29:01;2.22;;;0.20;;
30378;SDS011;17168;49.164;9.060;2023-04-24T00:31:36;0.77;;;0.10;;
30378;SDS011;17168;49.164;9.060;2023-04-24T00:34:08;0.50;;;0.10;;
30378;SDS011;17168;49.164;9.060;2023-04-24T00:36:41;0.65;;;0.00;;
30378;SDS011;17168;49.164;9.060;2023-04-24T00:39:13;0.47;;;0.17;;
30378;SDS011;17168;49.164;9.060;2023-04-24T00:41:46;0.60;;;0.10;;
30378;SDS011;17168;49.164;9.060;2023-04-24T00:44:19;0.93;;;0.40;;
30378;SDS011;17168;49.164;9.060;2023-04-24T00:46:54;0.63;;;0.43;;
30378;SDS011;17168;49.164;9.060;2023-04-24T00:49:27;1.95;;;0.13;;
30378;SDS011;17168;49.164;9.060;2023-04-24T00:51:59;1.48;;;0.30;;
30378;SDS011;17168;49.164;9.060;2023-04-24T00:54:31;0.65;;;0.13;;
30378;SDS011;17168;49.164;9.060;2023-04-24T00:57:03;1.48;;;0.17;;
30378;SDS011;17168;49.164;9.060;2023-04-24T00:59:36;1.02;;;0.10;;
30378;SDS011;17168;49.164;9.060;2023-04-24T01:02:11;0.38;;;0.10;;
30378;SDS011;17168;49.164;9.060;2023-04-24T01:04:44;0.93;;;0.20;;
30378;SDS011;17168;49.164;9.060;2023-04-24T01:07:16;2.35;;;0.03;;
30378;SDS011;17168;49.164;9.060;2023-04-24T01:09:52;0.82;;;0.10;;
30378;SDS011;17168;49.164;9.060;2023-04-24T01:12:24;0.60;;;0.22;;
30378;SDS011;17168;49.164;9.060;2023-04-24T01:14:57;1.90;;;0.35;;
30378;SDS011;17168;49.164;9.060;2023-04-24T01:17:32;2.08;;;0.28;;
30378;SDS011;17168;49.164;9.060;2023-04-24T01:20:04;0.98;;;0.15;;
30378;SDS011;17168;49.164;9.060;2023-04-24T01:22:40;1.00;;;0.45;;
30378;SDS011;17168;49.164;9.060;2023-04-24T01:25:13;1.30;;;0.10;;
30378;SDS011;17168;49.164;9.060;2023-04-24T01:27:45;0.25;;;0.03;;
30378;SDS011;17168;49.164;9.060;2023-04-24T01:30:17;0.70;;;0.32;;
30378;SDS011;17168;49.164;9.060;2023-04-24T01:32:49;1.50;;;0.13;;
30378;SDS011;17168;49.164;9.060;2023-04-24T01:35:23;0.90;;;0.30;;
30378;SDS011;17168;49.164;9.060;2023-04-24T01:37:57;2.67;;;0.70;;
30378;SDS011;17168;49.164;9.060;2023-04-24T01:40:30;0.90;;;0.13;;
30378;SDS011;17168;49.164;9.060;2023-04-24T01:43:02;0.50;;;0.03;;
30378;SDS011;17168;49.164;9.060;2023-04-24T01:45:35;0.50;;;0.25;;
30378;SDS011;17168;49.164;9.060;2023-04-24T01:48:07;1.15;;;0.20;;
30378;SDS011;17168;49.164;9.060;2023-04-24T01:50:39;1.58;;;0.25;;
30378;SDS011;17168;49.164;9.060;2023-04-24T01:53:14;1.75;;;0.45;;
30378;SDS011;17168;49.164;9.060;2023-04-24T01:55:46;1.15;;;0.13;;
30378;SDS011;17168;49.164;9.060;2023-04-24T01:58:18;0.70;;;0.20;;
30378;SDS011;17168;49.164;9.060;2023-04-24T02:00:50;0.63;;;0.20;;
30378;SDS011;17168;49.164;9.060;2023-04-24T02:03:22;1.08;;;0.28;;
30378;SDS011;17168;49.164;9.060;2023-04-24T02:05:55;1.42;;;0.10;;
30378;SDS011;17168;49.164;9.060;2023-04-24T02:08:30;0.73;;;0.10;;
30378;SDS011;17168;49.164;9.060;2023-04-24T02:11:02;1.92;;;0.30;;
30378;SDS011;17168;49.164;9.060;2023-04-24T02:13:34;1.30;;;0.13;;
30378;SDS011;17168;49.164;9.060;2023-04-24T02:16:06;1.88;;;0.10;;
30378;SDS011;17168;49.164;9.060;2023-04-24T02:18:38;0.82;;;0.10;;
30378;SDS011;17168;49.164;9.060;2023-04-24T02:21:11;3.25;;;0.47;;
30378;SDS011;17168;49.164;9.060;2023-04-24T02:23:45;0.93;;;0.10;;
30378;SDS011;17168;49.164;9.060;2023-04-24T02:26:17;1.10;;;0.38;;
30378;SDS011;17168;49.164;9.060;2023-04-24T02:28:50;0.63;;;0.20;;
30378;SDS011;17168;49.164;9.060;2023-04-24T02:31:23;1.95;;;0.40;;
30378;SDS011;17168;49.164;9.060;2023-04-24T02:33:55;0.75;;;0.22;;
30378;SDS011;17168;49.164;9.060;2023-04-24T02:36:27;0.60;;;0.22;;
30378;SDS011;17168;49.164;9.060;2023-04-24T02:39:02;4.53;;;1.05;;
30378;SDS011;17168;49.164;9.060;2023-04-24T02:41:35;0.68;;;0.10;;
30378;SDS011;17168;49.164;9.060;2023-04-24T02:44:07;0.90;;;0.22;;
30378;SDS011;17168;49.164;9.060;2023-04-24T02:46:39;1.73;;;0.38;;
30378;SDS011;17168;49.164;9.060;2023-04-24T02:49:12;0.73;;;0.15;;
30378;SDS011;17168;49.164;9.060;2023-04-24T02:51:44;1.08;;;0.30;;
30378;SDS011;17168;49.164;9.060;2023-04-24T02:54:19;0.90;;;0.70;;
30378;SDS011;17168;49.164;9.060;2023-04-24T02:56:51;0.73;;;0.38;;
30378;SDS011;17168;49.164;9.060;2023-04-24T02:59:23;0.57;;;0.28;;
30378;SDS011;17168;49.164;9.060;2023-04-24T03:01:56;1.42;;;0.32;;
30378;SDS011;17168;49.164;9.060;2023-04-24T03:04:28;1.02;;;0.20;;
30378;SDS011;17168;49.164;9.060;2023-04-24T03:07:00;0.52;;;0.15;;
30378;SDS011;17168;49.164;9.060;2023-04-24T03:09:35;0.93;;;0.25;;
30378;SDS011;17168;49.164;9.060;2023-04-24T03:12:07;1.23;;;0.20;;
30378;SDS011;17168;49.164;9.060;2023-04-24T03:14:39;1.80;;;0.40;;
30378;SDS011;17168;49.164;9.060;2023-04-24T03:17:11;1.40;;;0.40;;
30378;SDS011;17168;49.164;9.060;2023-04-24T03:19:43;0.63;;;0.13;;
30378;SDS011;17168;49.164;9.060;2023-04-24T03:22:16;1.92;;;0.35;;
30378;SDS011;17168;49.164;9.060;2023-04-24T03:24:50;1.02;;;0.25;;
30378;SDS011;17168;49.164;9.060;2023-04-24T03:27:22;0.82;;;0.22;;
30378;SDS011;17168;49.164;9.060;2023-04-24T03:29:55;2.58;;;0.22;;
30378;SDS011;17168;49.164;9.060;2023-04-24T03:32:27;0.68;;;0.15;;
30378;SDS011;17168;49.164;9.060;2023-04-24T03:34:59;1.40;;;0.30;;
30378;SDS011;17168;49.164;9.060;2023-04-24T03:37:31;0.82;;;0.38;;
30378;SDS011;17168;49.164;9.060;2023-04-24T03:40:07;0.68;;;0.28;;
30378;SDS011;17168;49.164;9.060;2023-04-24T03:42:40;4.90;;;0.40;;
30378;SDS011;17168;49.164;9.060;2023-04-24T03:45:12;2.03;;;0.20;;
30378;SDS011;17168;49.164;9.060;2023-04-24T03:47:44;0.75;;;0.10;;
30378;SDS011;17168;49.164;9.060;2023-04-24T03:50:16;1.52;;;0.63;;
30378;SDS011;17168;49.164;9.060;2023-04-24T03:52:48;2.15;;;0.60;;
30378;SDS011;17168;49.164;9.060;2023-04-24T03:55:23;1.48;;;0.50;;
30378;SDS011;17168;49.164;9.060;2023-04-24T03:57:55;2.47;;;0.40;;
30378;SDS011;17168;49.164;9.060;2023-04-24T04:00:27;2.03;;;0.13;;
30378;SDS011;17168;49.164;9.060;2023-04-24T04:03:00;0.20;;;0.03;;
30378;SDS011;17168;49.164;9.060;2023-04-24T04:05:32;0.70;;;0.30;;
30378;SDS011;17168;49.164;9.060;2023-04-24T04:08:04;2.40;;;0.20;;
30378;SDS011;17168;49.164;9.060;2023-04-24T04:10:39;1.60;;;0.22;;
30378;SDS011;17168;49.164;9.060;2023-04-24T04:13:11;0.13;;;0.05;;
30378;SDS011;17168;49.164;9.060;2023-04-24T04:15:43;1.40;;;0.38;;
30378;SDS011;17168;49.164;9.060;2023-04-24T04:18:15;1.05;;;0.40;;
30378;SDS011;17168;49.164;9.060;2023-04-24T04:20:47;1.92;;;0.25;;
30378;SDS011;17168;49.164;9.060;2023-04-24T04:23:19;0.75;;;0.30;;
30378;SDS011;17168;49.164;9.060;2023-04-24T04:25:54;1.67;;;0.38;;
30378;SDS011;17168;49.164;9.060;2023-04-24T04:28:26;0.68;;;0.50;;
30378;SDS011;17168;49.164;9.060;2023-04-24T04:30:58;0.77;;;0.22;;
30378;SDS011;17168;49.164;9.060;2023-04-24T04:33:30;1.15;;;0.50;;
30378;SDS011;17168;49.164;9.060;2023-04-24T04:36:03;1.77;;;0.52;;
30378;SDS011;17168;49.164;9.060;2023-04-24T04:38:35;1.77;;;0.28;;
30378;SDS011;17168;49.164;9.060;2023-04-24T04:41:11;2.75;;;0.70;;
30378;SDS011;17168;49.164;9.060;2023-04-24T04:43:43;1.73;;;0.88;;
30378;SDS011;17168;49.164;9.060;2023-04-24T04:46:15;0.60;;;0.25;;
30378;SDS011;17168;49.164;9.060;2023-04-24T04:48:48;0.52;;;0.25;;
30378;SDS011;17168;49.164;9.060;2023-04-24T04:51:20;2.10;;;0.68;;
30378;SDS011;17168;49.164;9.060;2023-04-24T04:53:52;2.97;;;1.70;;
30378;SDS011;17168;49.164;9.060;2023-04-24T04:56:27;3.15;;;1.55;;
30378;SDS011;17168;49.164;9.060;2023-04-24T04:58:59;4.90;;;1.42;;
30378;SDS011;17168;49.164;9.060;2023-04-24T05:01:31;4.38;;;0.88;;
30378;SDS011;17168;49.164;9.060;2023-04-24T05:04:03;3.05;;;1.60;;
30378;SDS011;17168;49.164;9.060;2023-04-24T05:06:36;3.22;;;1.08;;
30378;SDS011;17168;49.164;9.060;2023-04-24T05:09:08;3.08;;;1.25;;
30378;SDS011;17168;49.164;9.060;2023-04-24T05:11:43;2.20;;;1.20;;
30378;SDS011;17168;49.164;9.060;2023-04-24T05:14:15;2.75;;;1.42;;
30378;SDS011;17168;49.164;9.060;2023-04-24T05:16:49;3.92;;;1.55;;
30378;SDS011;17168;49.164;9.060;2023-04-24T05:19:21;2.95;;;1.63;;
30378;SDS011;17168;49.164;9.060;2023-04-24T05:21:53;5.45;;;2.35;;
30378;SDS011;17168;49.164;9.060;2023-04-24T05:24:25;3.50;;;1.27;;
30378;SDS011;17168;49.164;9.060;2023-04-24T05:27:00;2.00;;;1.20;;
30378;SDS011;17168;49.164;9.060;2023-04-24T05:29:33;1.42;;;0.70;;
30378;SDS011;17168;49.164;9.060;2023-04-24T05:32:05;2.83;;;1.60;;
30378;SDS011;17168;49.164;9.060;2023-04-24T05:34:37;3.97;;;1.00;;
30378;SDS011;17168;49.164;9.060;2023-04-24T05:37:09;2.88;;;1.73;;
30378;SDS011;17168;49.164;9.060;2023-04-24T05:39:41;3.40;;;1.88;;
30378;SDS011;17168;49.164;9.060;2023-04-24T05:42:20;2.85;;;1.80;;
30378;SDS011;17168;49.164;9.060;2023-04-24T05:44:52;3.15;;;1.98;;
30378;SDS011;17168;49.164;9.060;2023-04-24T05:47:28;4.93;;;2.63;;
30378;SDS011;17168;49.164;9.060;2023-04-24T05:50:00;5.18;;;2.20;;
30378;SDS011;17168;49.164;9.060;2023-04-24T05:52:32;2.83;;;0.77;;
30378;SDS011;17168;49.164;9.060;2023-04-24T05:55:04;2.30;;;1.02;;
30378;SDS011;17168;49.164;9.060;2023-04-24T05:57:40;0.75;;;0.20;;
30378;SDS011;17168;49.164;9.060;2023-04-24T06:00:12;1.73;;;0.73;;
30378;SDS011;17168;49.164;9.060;2023-04-24T06:02:45;2.17;;;1.05;;
30378;SDS011;17168;49.164;9.060;2023-04-24T06:05:17;4.63;;;1.48;;
30378;SDS011;17168;49.164;9.060;2023-04-24T06:07:50;2.40;;;0.80;;
30378;SDS011;17168;49.164;9.060;2023-04-24T06:10:22;2.72;;;2.50;;
30378;SDS011;17168;49.164;9.060;2023-04-24T06:12:57;3.55;;;1.80;;
30378;SDS011;17168;49.164;9.060;2023-04-24T06:15:33;2.70;;;1.77;;
30378;SDS011;17168;49.164;9.060;2023-04-24T06:18:05;2.53;;;1.60;;
30378;SDS011;17168;49.164;9.060;2023-04-24T06:20:37;2.70;;;1.00;;
30378;SDS011;17168;49.164;9.060;2023-04-24T06:23:09;3.92;;;2.53;;
30378;SDS011;17168;49.164;9.060;2023-04-24T06:25:41;1.83;;;1.02;;
30378;SDS011;17168;49.164;9.060;2023-04-24T06:28:16;1.95;;;0.98;;
30378;SDS011;17168;49.164;9.060;2023-04-24T06:30:48;2.95;;;1.05;;
30378;SDS011;17168;49.164;9.060;2023-04-24T06:33:20;1.27;;;0.38;;
30378;SDS011;17168;49.164;9.060;2023-04-24T06:35:54;1.95;;;1.27;;
30378;SDS011;17168;49.164;9.060;2023-04-24T06:38:26;1.77;;;1.08;;
30378;SDS011;17168;49.164;9.060;2023-04-24T06:40:58;3.78;;;1.48;;
30378;SDS011;17168;49.164;9.060;2023-04-24T06:43:33;3.80;;;0.70;;
30378;SDS011;17168;49.164;9.060;2023-04-24T06:46:05;1.98;;;0.90;;
30378;SDS011;17168;49.164;9.060;2023-04-24T06:48:37;3.97;;;1.50;;
30378;SDS011;17168;49.164;9.060;2023-04-24T06:51:10;2.35;;;0.63;;
30378;SDS011;17168;49.164;9.060;2023-04-24T06:53:42;0.98;;;0.68;;
30378;SDS011;17168;49.164;9.060;2023-04-24T06:56:14;1.90;;;0.88;;
30378;SDS011;17168;49.164;9.060;2023-04-24T06:58:49;2.22;;;1.00;;
30378;SDS011;17168;49.164;9.060;2023-04-24T07:01:22;4.35;;;1.02;;
30378;SDS011;17168;49.164;9.060;2023-04-24T07:03:55;0.88;;;0.57;;
30378;SDS011;17168;49.164;9.060;2023-04-24T07:06:27;1.45;;;0.77;;
30378;SDS011;17168;49.164;9.060;2023-04-24T07:08:59;1.90;;;0.85;;
30378;SDS011;17168;49.164;9.060;2023-04-24T07:11:32;2.25;;;0.63;;
30378;SDS011;17168;49.164;9.060;2023-04-24T07:14:08;1.00;;;0.45;;
30378;SDS011;17168;49.164;9.060;2023-04-24T07:16:40;1.58;;;0.70;;
30378;SDS011;17168;49.164;9.060;2023-04-24T07:19:13;2.25;;;0.95;;
30378;SDS011;17168;49.164;9.060;2023-04-24T07:21:45;1.23;;;0.45;;
30378;SDS011;17168;49.164;9.060;2023-04-24T07:24:17;1.35;;;0.52;;
30378;SDS011;17168;49.164;9.060;2023-04-24T07:26:52;0.95;;;0.20;;
30378;SDS011;17168;49.164;9.060;2023-04-24T07:29:27;2.70;;;0.90;;
30378;SDS011;17168;49.164;9.060;2023-04-24T07:31:59;2.00;;;0.47;;
30378;SDS011;17168;49.164;9.060;2023-04-24T07:34:34;1.42;;;0.60;;
30378;SDS011;17168;49.164;9.060;2023-04-24T07:37:06;1.83;;;0.75;;
30378;SDS011;17168;49.164;9.060;2023-04-24T07:39:38;2.17;;;0.70;;
30378;SDS011;17168;49.164;9.060;2023-04-24T07:42:10;1.40;;;0.85;;
30378;SDS011;17168;49.164;9.060;2023-04-24T07:44:45;1.38;;;0.75;;
30378;SDS011;17168;49.164;9.060;2023-04-24T07:47:19;2.03;;;0.38;;
30378;SDS011;17168;49.164;9.060;2023-04-24T07:49:51;1.90;;;0.57;;
30378;SDS011;17168;49.164;9.060;2023-04-24T07:52:23;1.90;;;0.75;;
30378;SDS011;17168;49.164;9.060;2023-04-24T07:54:55;0.82;;;0.52;;
30378;SDS011;17168;49.164;9.060;2023-04-24T07:57:31;0.75;;;0.40;;
30378;SDS011;17168;49.164;9.060;2023-04-24T08:00:07;1.17;;;0.75;;
30378;SDS011;17168;49.164;9.060;2023-04-24T08:02:40;0.90;;;0.40;;
30378;SDS011;17168;49.164;9.060;2023-04-24T08:05:13;2.30;;;0.73;;
30378;SDS011;17168;49.164;9.060;2023-04-24T08:07:45;0.98;;;0.60;;
30378;SDS011;17168;49.164;9.060;2023-04-24T08:10:20;0.85;;;0.35;;
30378;SDS011;17168;49.164;9.060;2023-04-24T08:12:52;3.00;;;0.98;;
30378;SDS011;17168;49.164;9.060;2023-04-24T08:15:27;1.67;;;0.57;;
30378;SDS011;17168;49.164;9.060;2023-04-24T08:17:59;0.52;;;0.20;;
30378;SDS011;17168;49.164;9.060;2023-04-24T08:20:32;1.92;;;0.73;;
30378;SDS011;17168;49.164;9.060;2023-04-24T08:23:04;1.98;;;0.40;;
30378;SDS011;17168;49.164;9.060;2023-04-24T08:25:36;1.02;;;0.32;;
30378;SDS011;17168;49.164;9.060;2023-04-24T08:28:08;0.93;;;0.52;;
30378;SDS011;17168;49.164;9.060;2023-04-24T08:30:48;1.25;;;0.50;;
30378;SDS011;17168;49.164;9.060;2023-04-24T08:33:25;2.33;;;1.05;;
30378;SDS011;17168;49.164;9.060;2023-04-24T08:35:57;2.20;;;1.15;;
30378;SDS011;17168;49.164;9.060;2023-04-24T08:38:32;3.15;;;0.50;;
30378;SDS011;17168;49.164;9.060;2023-04-24T08:41:05;2.03;;;0.88;;
30378;SDS011;17168;49.164;9.060;2023-04-24T08:43:38;2.45;;;0.70;;
30378;SDS011;17168;49.164;9.060;2023-04-24T08:46:15;1.33;;;0.70;;
30378;SDS011;17168;49.164;9.060;2023-04-24T08:48:48;1.38;;;0.40;;
30378;SDS011;17168;49.164;9.060;2023-04-24T08:51:21;1.95;;;0.45;;
30378;SDS011;17168;49.164;9.060;2023-04-24T08:53:57;1.00;;;0.10;;
30378;SDS011;17168;49.164;9.060;2023-04-24T08:56:29;0.60;;;0.43;;
30378;SDS011;17168;49.164;9.060;2023-04-24T08:59:03;0.30;;;0.10;;
30378;SDS011;17168;49.164;9.060;2023-04-24T09:01:38;0.40;;;0.03;;
30378;SDS011;17168;49.164;9.060;2023-04-24T09:04:12;0.55;;;0.10;;
30378;SDS011;17168;49.164;9.060;2023-04-24T09:06:47;2.80;;;0.30;;
30378;SDS011;17168;49.164;9.060;2023-04-24T09:09:20;1.45;;;0.20;;
30378;SDS011;17168;49.164;9.060;2023-04-24T09:11:53;0.50;;;0.25;;
30378;SDS011;17168;49.164;9.060;2023-04-24T09:14:27;2.17;;;0.28;;
30378;SDS011;17168;49.164;9.060;2023-04-24T09:17:02;1.13;;;0.20;;
30378;SDS011;17168;49.164;9.060;2023-04-24T09:19:34;1.58;;;0.25;;
30378;SDS011;17168;49.164;9.060;2023-04-24T09:22:07;1.05;;;0.40;;
30378;SDS011;17168;49.164;9.060;2023-04-24T09:24:40;1.17;;;0.50;;
30378;SDS011;17168;49.164;9.060;2023-04-24T09:27:12;1.27;;;0.70;;
30378;SDS011;17168;49.164;9.060;2023-04-24T09:29:53;0.90;;;0.45;;
30378;SDS011;17168;49.164;9.060;2023-04-24T09:32:28;1.92;;;0.35;;
30378;SDS011;17168;49.164;9.060;2023-04-24T09:35:06;1.45;;;0.30;;
30378;SDS011;17168;49.164;9.060;2023-04-24T09:37:41;0.47;;;0.22;;
30378;SDS011;17168;49.164;9.060;2023-04-24T09:40:15;1.50;;;0.25;;
30378;SDS011;17168;49.164;9.060;2023-04-24T09:42:51;1.77;;;0.47;;
30378;SDS011;17168;49.164;9.060;2023-04-24T09:45:26;0.82;;;0.35;;
30378;SDS011;17168;49.164;9.060;2023-04-24T09:48:02;0.55;;;0.10;;
30378;SDS011;17168;49.164;9.060;2023-04-24T09:50:34;1.23;;;0.40;;
30378;SDS011;17168;49.164;9.060;2023-04-24T09:53:07;1.80;;;0.30;;
30378;SDS011;17168;49.164;9.060;2023-04-24T09:55:42;0.47;;;0.35;;
30378;SDS011;17168;49.164;9.060;2023-04-24T09:58:17;1.08;;;0.45;;
30378;SDS011;17168;49.164;9.060;2023-04-24T10:00:50;2.20;;;0.57;;
30378;SDS011;17168;49.164;9.060;2023-04-24T10:03:29;0.77;;;0.43;;
30378;SDS011;17168;49.164;9.060;2023-04-24T10:06:02;2.05;;;0.60;;
30378;SDS011;17168;49.164;9.060;2023-04-24T10:08:40;1.00;;;0.38;;
30378;SDS011;17168;49.164;9.060;2023-04-24T10:11:12;2.00;;;0.50;;
30378;SDS011;17168;49.164;9.060;2023-04-24T10:13:45;0.88;;;0.60;;
30378;SDS011;17168;49.164;9.060;2023-04-24T10:16:17;1.58;;;0.90;;
30378;SDS011;17168;49.164;9.060;2023-04-24T10:18:52;1.42;;;0.70;;
30378;SDS011;17168;49.164;9.060;2023-04-24T10:21:26;2.17;;;1.48;;
30378;SDS011;17168;49.164;9.060;2023-04-24T10:23:59;3.03;;;1.23;;
30378;SDS011;17168;49.164;9.060;2023-04-24T10:26:34;2.15;;;1.10;;
30378;SDS011;17168;49.164;9.060;2023-04-24T10:29:08;1.17;;;0.35;;
30378;SDS011;17168;49.164;9.060;2023-04-24T10:31:43;4.80;;;0.73;;
30378;SDS011;17168;49.164;9.060;2023-04-24T10:34:21;1.67;;;0.90;;
30378;SDS011;17168;49.164;9.060;2023-04-24T10:36:55;2.15;;;1.35;;
30378;SDS011;17168;49.164;9.060;2023-04-24T10:39:28;1.40;;;0.65;;
30378;SDS011;17168;49.164;9.060;2023-04-24T10:42:02;1.98;;;0.63;;
30378;SDS011;17168;49.164;9.060;2023-04-24T10:44:48;2.20;;;0.90;;
30378;SDS011;17168;49.164;9.060;2023-04-24T10:47:21;2.60;;;1.08;;
30378;SDS011;17168;49.164;9.060;2023-04-24T10:49:55;2.95;;;1.30;;
30378;SDS011;17168;49.164;9.060;2023-04-24T10:52:43;3.53;;;1.33;;
30378;SDS011;17168;49.164;9.060;2023-04-24T10:55:15;2.58;;;1.17;;
30378;SDS011;17168;49.164;9.060;2023-04-24T10:58:01;1.77;;;0.98;;
30378;SDS011;17168;49.164;9.060;2023-04-24T11:00:36;2.75;;;1.35;;
30378;SDS011;17168;49.164;9.060;2023-04-24T11:03:22;3.75;;;1.08;;
30378;SDS011;17168;49.164;9.060;2023-04-24T11:05:59;2.28;;;0.98;;
30378;SDS011;17168;49.164;9.060;2023-04-24T11:08:37;1.42;;;0.60;;
30378;SDS011;17168;49.164;9.060;2023-04-24T11:11:11;1.77;;;0.82;;
30378;SDS011;17168;49.164;9.060;2023-04-24T11:14:02;2.17;;;1.23;;
30378;SDS011;17168;49.164;9.060;2023-04-24T11:16:39;1.50;;;0.75;;
30378;SDS011;17168;49.164;9.060;2023-04-24T11:19:20;2.42;;;0.75;;
30378;SDS011;17168;49.164;9.060;2023-04-24T11:21:58;1.48;;;0.60;;
30378;SDS011;17168;49.164;9.060;2023-04-24T11:24:38;2.80;;;1.55;;
30378;SDS011;17168;49.164;9.060;2023-04-24T11:27:12;2.85;;;1.55;;
30378;SDS011;17168;49.164;9.060;2023-04-24T11:29:46;3.22;;;1.67;;
30378;SDS011;17168;49.164;9.060;2023-04-24T11:32:23;3.65;;;1.73;;
30378;SDS011;17168;49.164;9.060;2023-04-24T11:34:58;3.67;;;2.20;;
30378;SDS011;17168;49.164;9.060;2023-04-24T11:37:36;2.45;;;1.42;;
30378;SDS011;17168;49.164;9.060;2023-04-24T11:42:43;4.55;;;2.53;;
30378;SDS011;17168;49.164;9.060;2023-04-24T11:45:17;5.43;;;2.15;;
30378;SDS011;17168;49.164;9.060;2023-04-24T11:47:50;2.67;;;1.52;;
30378;SDS011;17168;49.164;9.060;2023-04-24T11:50:23;2.92;;;1.60;;
30378;SDS011;17168;49.164;9.060;2023-04-24T11:53:00;2.60;;;1.60;;
30378;SDS011;17168;49.164;9.060;2023-04-24T11:55:32;4.80;;;2.53;;
30378;SDS011;17168;49.164;9.060;2023-04-24T11:58:05;3.42;;;1.35;;
30378;SDS011;17168;49.164;9.060;2023-04-24T12:00:37;2.28;;;1.30;;
30378;SDS011;17168;49.164;9.060;2023-04-24T12:03:10;2.13;;;1.17;;
30378;SDS011;17168;49.164;9.060;2023-04-24T12:05:43;0.85;;;0.35;;
30378;SDS011;17168;49.164;9.060;2023-04-24T12:08:29;1.50;;;0.88;;
30378;SDS011;17168;49.164;9.060;2023-04-24T12:11:04;1.30;;;0.70;;
30378;SDS011;17168;49.164;9.060;2023-04-24T12:13:40;1.98;;;1.45;;
30378;SDS011;17168;49.164;9.060;2023-04-24T12:16:13;2.20;;;1.20;;
30378;SDS011;17168;49.164;9.060;2023-04-24T12:18:45;1.65;;;1.33;;
30378;SDS011;17168;49.164;9.060;2023-04-24T12:21:18;4.30;;;1.73;;
30378;SDS011;17168;49.164;9.060;2023-04-24T12:23:56;1.48;;;0.98;;
30378;SDS011;17168;49.164;9.060;2023-04-24T12:26:28;2.50;;;1.42;;
30378;SDS011;17168;49.164;9.060;2023-04-24T12:29:01;3.08;;;2.25;;
30378;SDS011;17168;49.164;9.060;2023-04-24T12:31:42;3.75;;;2.00;;
30378;SDS011;17168;49.164;9.060;2023-04-24T12:34:17;2.55;;;1.38;;
30378;SDS011;17168;49.164;9.060;2023-04-24T12:36:50;1.90;;;1.27;;
30378;SDS011;17168;49.164;9.060;2023-04-24T12:39:25;3.90;;;1.80;;
30378;SDS011;17168;49.164;9.060;2023-04-24T12:42:02;3.17;;;1.33;;
30378;SDS011;17168;49.164;9.060;2023-04-24T12:44:34;2.67;;;1.02;;
30378;SDS011;17168;49.164;9.060;2023-04-24T12:47:08;2.17;;;1.33;;
30378;SDS011;17168;49.164;9.060;2023-04-24T12:49:49;2.22;;;1.23;;
30378;SDS011;17168;49.164;9.060;2023-04-24T12:52:23;1.08;;;0.65;;
30378;SDS011;17168;49.164;9.060;2023-04-24T12:54:59;2.30;;;1.38;;
30378;SDS011;17168;49.164;9.060;2023-04-24T12:57:32;1.77;;;1.20;;
30378;SDS011;17168;49.164;9.060;2023-04-24T13:00:05;2.10;;;1.23;;
30378;SDS011;17168;49.164;9.060;2023-04-24T13:02:41;1.88;;;1.15;;
30378;SDS011;17168;49.164;9.060;2023-04-24T13:05:14;2.83;;;1.77;;
30378;SDS011;17168;49.164;9.060;2023-04-24T13:07:47;3.45;;;2.17;;
30378;SDS011;17168;49.164;9.060;2023-04-24T13:10:21;4.38;;;1.80;;
30378;SDS011;17168;49.164;9.060;2023-04-24T13:12:54;6.78;;;2.22;;
30378;SDS011;17168;49.164;9.060;2023-04-24T13:15:26;2.17;;;1.73;;
30378;SDS011;17168;49.164;9.060;2023-04-24T13:17:58;3.92;;;2.50;;
30378;SDS011;17168;49.164;9.060;2023-04-24T13:20:31;4.43;;;3.00;;
30378;SDS011;17168;49.164;9.060;2023-04-24T13:23:03;4.32;;;1.60;;
30378;SDS011;17168;49.164;9.060;2023-04-24T13:25:38;2.45;;;1.00;;
30378;SDS011;17168;49.164;9.060;2023-04-24T13:28:10;2.00;;;1.42;;
30378;SDS011;17168;49.164;9.060;2023-04-24T13:30:42;2.60;;;1.58;;
30378;SDS011;17168;49.164;9.060;2023-04-24T13:33:15;4.90;;;2.03;;
30378;SDS011;17168;49.164;9.060;2023-04-24T13:35:47;3.78;;;2.90;;
30378;SDS011;17168;49.164;9.060;2023-04-24T13:38:19;5.18;;;2.30;;
30378;SDS011;17168;49.164;9.060;2023-04-24T13:40:55;2.22;;;1.40;;
30378;SDS011;17168;49.164;9.060;2023-04-24T13:43:27;3.50;;;2.17;;
30378;SDS011;17168;49.164;9.060;2023-04-24T13:45:59;3.65;;;1.63;;
30378;SDS011;17168;49.164;9.060;2023-04-24T13:48:34;3.15;;;1.40;;
30378;SDS011;17168;49.164;9.060;2023-04-24T13:51:06;2.55;;;1.38;;
30378;SDS011;17168;49.164;9.060;2023-04-24T13:53:38;1.85;;;0.77;;
30378;SDS011;17168;49.164;9.060;2023-04-24T13:56:13;2.72;;;0.95;;
30378;SDS011;17168;49.164;9.060;2023-04-24T13:58:46;5.38;;;2.35;;
30378;SDS011;17168;49.164;9.060;2023-04-24T14:01:18;2.00;;;1.30;;
30378;SDS011;17168;49.164;9.060;2023-04-24T14:03:50;1.80;;;1.17;;
30378;SDS011;17168;49.164;9.060;2023-04-24T14:06:23;2.28;;;0.73;;
30378;SDS011;17168;49.164;9.060;2023-04-24T14:08:56;1.80;;;1.38;;
30378;SDS011;17168;49.164;9.060;2023-04-24T14:11:30;2.03;;;1.00;;
30378;SDS011;17168;49.164;9.060;2023-04-24T14:14:03;1.85;;;0.70;;
30378;SDS011;17168;49.164;9.060;2023-04-24T14:16:35;0.95;;;0.45;;
30378;SDS011;17168;49.164;9.060;2023-04-24T14:19:08;0.88;;;0.88;;
30378;SDS011;17168;49.164;9.060;2023-04-24T14:21:40;1.90;;;0.85;;
30378;SDS011;17168;49.164;9.060;2023-04-24T14:24:12;2.25;;;1.08;;
30378;SDS011;17168;49.164;9.060;2023-04-24T14:26:47;1.10;;;0.70;;
30378;SDS011;17168;49.164;9.060;2023-04-24T14:29:19;1.13;;;0.63;;
30378;SDS011;17168;49.164;9.060;2023-04-24T14:31:51;2.70;;;0.95;;
30378;SDS011;17168;49.164;9.060;2023-04-24T14:34:23;2.42;;;1.05;;
30378;SDS011;17168;49.164;9.060;2023-04-24T14:36:55;2.50;;;1.05;;
30378;SDS011;17168;49.164;9.060;2023-04-24T14:39:28;1.85;;;0.88;;
30378;SDS011;17168;49.164;9.060;2023-04-24T14:42:03;2.22;;;0.80;;
30378;SDS011;17168;49.164;9.060;2023-04-24T14:44:35;4.18;;;1.73;;
30378;SDS011;17168;49.164;9.060;2023-04-24T14:47:07;3.47;;;2.38;;
30378;SDS011;17168;49.164;9.060;2023-04-24T14:49:39;2.53;;;0.90;;
30378;SDS011;17168;49.164;9.060;2023-04-24T14:52:11;1.55;;;0.55;;
30378;SDS011;17168;49.164;9.060;2023-04-24T14:54:43;1.48;;;0.98;;
30378;SDS011;17168;49.164;9.060;2023-04-24T14:57:18;4.13;;;2.15;;
30378;SDS011;17168;49.164;9.060;2023-04-24T14:59:50;3.03;;;2.22;;
30378;SDS011;17168;49.164;9.060;2023-04-24T15:02:22;3.53;;;1.25;;
30378;SDS011;17168;49.164;9.060;2023-04-24T15:04:55;10.50;;;1.88;;
30378;SDS011;17168;49.164;9.060;2023-04-24T15:07:27;3.97;;;1.92;;
30378;SDS011;17168;49.164;9.060;2023-04-24T15:10:00;2.45;;;1.17;;
30378;SDS011;17168;49.164;9.060;2023-04-24T15:12:35;5.05;;;2.58;;
30378;SDS011;17168;49.164;9.060;2023-04-24T15:15:08;2.20;;;0.93;;
30378;SDS011;17168;49.164;9.060;2023-04-24T15:17:40;3.05;;;1.48;;
30378;SDS011;17168;49.164;9.060;2023-04-24T15:20:12;4.55;;;1.88;;
30378;SDS011;17168;49.164;9.060;2023-04-24T15:22:46;3.35;;;1.60;;
30378;SDS011;17168;49.164;9.060;2023-04-24T15:25:18;2.97;;;1.85;;
30378;SDS011;17168;49.164;9.060;2023-04-24T15:27:53;4.93;;;2.08;;